sensor_id;sensor_type;location;lat;lon;timestamp;temperature;humidity
72883;DHT22;61017;37.812;-122.286;2022-12-31T00:00:35;18.60;93.70
72883;DHT22;61017;37.812;-122.286;2022-12-31T00:02:25;18.60;93.70
72883;DHT22;61017;37.812;-122.286;2022-12-31T00:04:16;18.60;93.60
72883;DHT22;61017;37.812;-122.286;2022-12-31T00:06:35;18.60;93.70
72883;DHT22;61017;37.812;-122.286;2022-12-31T00:08:25;18.60;94.00
72883;DHT22;61017;37.812;-122.286;2022-12-31T00:10:15;18.50;94.00
72883;DHT22;61017;37.812;-122.286;2022-12-31T00:12:05;18.60;93.70
72883;DHT22;61017;37.812;-122.286;2022-12-31T00:13:56;18.60;94.00
72883;DHT22;61017;37.812;-122.286;2022-12-31T00:15:46;18.60;93.60
72883;DHT22;61017;37.812;-122.286;2022-12-31T00:17:36;18.60;94.00
72883;DHT22;61017;37.812;-122.286;2022-12-31T00:19:26;18.60;93.90
72883;DHT22;61017;37.812;-122.286;2022-12-31T00:21:18;18.60;93.90
72883;DHT22;61017;37.812;-122.286;2022-12-31T00:23:09;18.60;93.90
72883;DHT22;61017;37.812;-122.286;2022-12-31T00:24:59;18.60;94.00
72883;DHT22;61017;37.812;-122.286;2022-12-31T00:26:50;18.50;93.70
72883;DHT22;61017;37.812;-122.286;2022-12-31T00:28:40;18.60;93.80
72883;DHT22;61017;37.812;-122.286;2022-12-31T00:30:30;18.50;93.50
72883;DHT22;61017;37.812;-122.286;2022-12-31T00:32:20;18.60;93.70
72883;DHT22;61017;37.812;-122.286;2022-12-31T00:34:10;18.60;93.70
72883;DHT22;61017;37.812;-122.286;2022-12-31T00:36:12;18.60;93.70
72883;DHT22;61017;37.812;-122.286;2022-12-31T00:38:02;18.60;93.60
72883;DHT22;61017;37.812;-122.286;2022-12-31T00:39:52;18.60;93.60
72883;DHT22;61017;37.812;-122.286;2022-12-31T00:41:43;18.60;93.60
72883;DHT22;61017;37.812;-122.286;2022-12-31T00:43:34;18.60;93.50
72883;DHT22;61017;37.812;-122.286;2022-12-31T00:45:24;18.50;93.50
72883;DHT22;61017;37.812;-122.286;2022-12-31T00:47:14;18.60;93.40
72883;DHT22;61017;37.812;-122.286;2022-12-31T00:49:04;18.50;93.30
72883;DHT22;61017;37.812;-122.286;2022-12-31T00:50:55;18.60;93.30
72883;DHT22;61017;37.812;-122.286;2022-12-31T00:52:45;18.50;93.40
72883;DHT22;61017;37.812;-122.286;2022-12-31T00:54:35;18.50;93.20
72883;DHT22;61017;37.812;-122.286;2022-12-31T00:56:28;18.50;93.40
72883;DHT22;61017;37.812;-122.286;2022-12-31T00:58:18;18.60;93.50
72883;DHT22;61017;37.812;-122.286;2022-12-31T01:00:09;18.60;93.30
72883;DHT22;61017;37.812;-122.286;2022-12-31T01:01:59;18.50;93.30
72883;DHT22;61017;37.812;-122.286;2022-12-31T01:03:52;18.60;93.40
72883;DHT22;61017;37.812;-122.286;2022-12-31T01:05:42;18.50;93.30
72883;DHT22;61017;37.812;-122.286;2022-12-31T01:07:32;18.60;93.40
72883;DHT22;61017;37.812;-122.286;2022-12-31T01:09:22;18.60;93.30
72883;DHT22;61017;37.812;-122.286;2022-12-31T01:11:12;18.60;93.40
72883;DHT22;61017;37.812;-122.286;2022-12-31T01:13:03;18.50;93.30
72883;DHT22;61017;37.812;-122.286;2022-12-31T01:14:53;18.60;93.40
72883;DHT22;61017;37.812;-122.286;2022-12-31T01:16:46;18.50;93.40
72883;DHT22;61017;37.812;-122.286;2022-12-31T01:18:36;18.50;93.30
72883;DHT22;61017;37.812;-122.286;2022-12-31T01:20:27;18.60;93.40
72883;DHT22;61017;37.812;-122.286;2022-12-31T01:22:17;18.60;93.30
72883;DHT22;61017;37.812;-122.286;2022-12-31T01:24:09;18.60;93.30
72883;DHT22;61017;37.812;-122.286;2022-12-31T01:26:01;18.50;93.30
72883;DHT22;61017;37.812;-122.286;2022-12-31T01:27:51;18.50;93.40
72883;DHT22;61017;37.812;-122.286;2022-12-31T01:29:41;18.50;93.40
72883;DHT22;61017;37.812;-122.286;2022-12-31T01:31:33;18.50;93.40
72883;DHT22;61017;37.812;-122.286;2022-12-31T01:33:23;18.50;93.40
72883;DHT22;61017;37.812;-122.286;2022-12-31T01:35:14;18.50;93.40
72883;DHT22;61017;37.812;-122.286;2022-12-31T01:37:04;18.50;93.40
72883;DHT22;61017;37.812;-122.286;2022-12-31T01:38:56;18.50;93.40
72883;DHT22;61017;37.812;-122.286;2022-12-31T01:40:46;18.50;93.40
72883;DHT22;61017;37.812;-122.286;2022-12-31T01:42:36;18.50;93.40
72883;DHT22;61017;37.812;-122.286;2022-12-31T01:48:29;18.50;93.30
72883;DHT22;61017;37.812;-122.286;2022-12-31T01:50:29;18.50;93.30
72883;DHT22;61017;37.812;-122.286;2022-12-31T01:52:39;18.50;93.30
72883;DHT22;61017;37.812;-122.286;2022-12-31T01:54:33;18.50;93.30
72883;DHT22;61017;37.812;-122.286;2022-12-31T01:56:26;18.50;93.20
72883;DHT22;61017;37.812;-122.286;2022-12-31T01:58:39;18.50;93.30
72883;DHT22;61017;37.812;-122.286;2022-12-31T02:00:31;18.50;93.30
72883;DHT22;61017;37.812;-122.286;2022-12-31T02:02:22;18.50;93.30
72883;DHT22;61017;37.812;-122.286;2022-12-31T02:04:12;18.50;93.40
72883;DHT22;61017;37.812;-122.286;2022-12-31T02:06:13;18.50;93.30
72883;DHT22;61017;37.812;-122.286;2022-12-31T02:08:06;18.50;93.50
72883;DHT22;61017;37.812;-122.286;2022-12-31T02:09:56;18.50;93.50
72883;DHT22;61017;37.812;-122.286;2022-12-31T02:11:46;18.50;93.50
72883;DHT22;61017;37.812;-122.286;2022-12-31T02:13:37;18.50;93.60
72883;DHT22;61017;37.812;-122.286;2022-12-31T02:16:02;18.50;93.30
72883;DHT22;61017;37.812;-122.286;2022-12-31T02:26:58;18.50;93.40
72883;DHT22;61017;37.812;-122.286;2022-12-31T02:31:49;18.60;93.50
72883;DHT22;61017;37.812;-122.286;2022-12-31T02:33:50;18.60;93.50
72883;DHT22;61017;37.812;-122.286;2022-12-31T02:35:54;18.50;93.50
72883;DHT22;61017;37.812;-122.286;2022-12-31T02:37:48;18.60;93.60
72883;DHT22;61017;37.812;-122.286;2022-12-31T02:39:46;18.60;93.60
72883;DHT22;61017;37.812;-122.286;2022-12-31T02:41:37;18.60;93.60
72883;DHT22;61017;37.812;-122.286;2022-12-31T02:43:27;18.50;93.50
72883;DHT22;61017;37.812;-122.286;2022-12-31T02:45:22;18.60;93.60
72883;DHT22;61017;37.812;-122.286;2022-12-31T02:47:27;18.50;93.50
72883;DHT22;61017;37.812;-122.286;2022-12-31T02:51:41;18.50;93.50
72883;DHT22;61017;37.812;-122.286;2022-12-31T02:56:15;18.50;93.50
72883;DHT22;61017;37.812;-122.286;2022-12-31T03:00:20;18.50;93.50
72883;DHT22;61017;37.812;-122.286;2022-12-31T03:02:13;18.50;93.40
72883;DHT22;61017;37.812;-122.286;2022-12-31T03:04:04;18.50;93.40
72883;DHT22;61017;37.812;-122.286;2022-12-31T03:05:55;18.50;93.40
72883;DHT22;61017;37.812;-122.286;2022-12-31T03:07:45;18.50;93.40
72883;DHT22;61017;37.812;-122.286;2022-12-31T03:09:36;18.50;93.70
72883;DHT22;61017;37.812;-122.286;2022-12-31T03:11:26;18.50;93.40
72883;DHT22;61017;37.812;-122.286;2022-12-31T03:13:16;18.50;93.40
72883;DHT22;61017;37.812;-122.286;2022-12-31T03:15:08;18.50;93.40
72883;DHT22;61017;37.812;-122.286;2022-12-31T03:16:59;18.50;93.40
72883;DHT22;61017;37.812;-122.286;2022-12-31T03:18:49;18.50;93.30
72883;DHT22;61017;37.812;-122.286;2022-12-31T03:20:48;18.50;93.30
72883;DHT22;61017;37.812;-122.286;2022-12-31T03:22:40;18.50;93.30
72883;DHT22;61017;37.812;-122.286;2022-12-31T03:24:34;18.50;93.30
72883;DHT22;61017;37.812;-122.286;2022-12-31T03:26:24;18.50;93.70
72883;DHT22;61017;37.812;-122.286;2022-12-31T03:28:17;18.50;93.30
72883;DHT22;61017;37.812;-122.286;2022-12-31T03:30:08;18.50;93.30
72883;DHT22;61017;37.812;-122.286;2022-12-31T03:32:00;18.50;93.30
72883;DHT22;61017;37.812;-122.286;2022-12-31T03:33:50;18.50;93.40
72883;DHT22;61017;37.812;-122.286;2022-12-31T03:35:41;18.50;93.40
72883;DHT22;61017;37.812;-122.286;2022-12-31T03:37:32;18.50;93.30
72883;DHT22;61017;37.812;-122.286;2022-12-31T03:39:22;18.50;93.40
72883;DHT22;61017;37.812;-122.286;2022-12-31T03:41:13;18.50;93.30
72883;DHT22;61017;37.812;-122.286;2022-12-31T03:43:03;18.50;93.30
72883;DHT22;61017;37.812;-122.286;2022-12-31T03:44:53;18.50;93.30
72883;DHT22;61017;37.812;-122.286;2022-12-31T03:46:43;18.50;93.30
72883;DHT22;61017;37.812;-122.286;2022-12-31T03:48:33;18.50;93.30
72883;DHT22;61017;37.812;-122.286;2022-12-31T03:50:24;18.50;93.30
72883;DHT22;61017;37.812;-122.286;2022-12-31T03:52:14;18.50;93.30
72883;DHT22;61017;37.812;-122.286;2022-12-31T03:54:04;18.50;93.30
72883;DHT22;61017;37.812;-122.286;2022-12-31T03:55:55;18.50;93.20
72883;DHT22;61017;37.812;-122.286;2022-12-31T03:57:45;18.50;93.30
72883;DHT22;61017;37.812;-122.286;2022-12-31T03:59:35;18.50;93.30
72883;DHT22;61017;37.812;-122.286;2022-12-31T04:01:25;18.50;93.40
72883;DHT22;61017;37.812;-122.286;2022-12-31T04:03:15;18.50;93.20
72883;DHT22;61017;37.812;-122.286;2022-12-31T04:05:06;18.50;93.20
72883;DHT22;61017;37.812;-122.286;2022-12-31T04:06:56;18.60;93.30
72883;DHT22;61017;37.812;-122.286;2022-12-31T04:08:46;18.60;93.20
72883;DHT22;61017;37.812;-122.286;2022-12-31T04:10:36;18.60;93.20
72883;DHT22;61017;37.812;-122.286;2022-12-31T04:12:28;18.60;93.20
72883;DHT22;61017;37.812;-122.286;2022-12-31T04:14:18;18.60;93.30
72883;DHT22;61017;37.812;-122.286;2022-12-31T04:16:08;18.60;93.30
72883;DHT22;61017;37.812;-122.286;2022-12-31T04:17:58;18.60;93.20
72883;DHT22;61017;37.812;-122.286;2022-12-31T04:19:49;18.60;93.30
72883;DHT22;61017;37.812;-122.286;2022-12-31T04:21:39;18.60;93.20
72883;DHT22;61017;37.812;-122.286;2022-12-31T04:23:29;18.60;93.20
72883;DHT22;61017;37.812;-122.286;2022-12-31T04:25:19;18.60;93.20
72883;DHT22;61017;37.812;-122.286;2022-12-31T04:27:11;18.60;93.60
72883;DHT22;61017;37.812;-122.286;2022-12-31T04:29:01;18.60;93.30
72883;DHT22;61017;37.812;-122.286;2022-12-31T04:30:51;18.50;93.30
72883;DHT22;61017;37.812;-122.286;2022-12-31T04:32:41;18.50;93.20
72883;DHT22;61017;37.812;-122.286;2022-12-31T04:34:32;18.50;93.20
72883;DHT22;61017;37.812;-122.286;2022-12-31T04:36:22;18.50;93.50
72883;DHT22;61017;37.812;-122.286;2022-12-31T04:38:12;18.50;93.10
72883;DHT22;61017;37.812;-122.286;2022-12-31T04:40:03;18.60;93.20
72883;DHT22;61017;37.812;-122.286;2022-12-31T04:41:53;18.50;93.10
72883;DHT22;61017;37.812;-122.286;2022-12-31T04:43:48;18.60;93.20
72883;DHT22;61017;37.812;-122.286;2022-12-31T04:45:38;18.60;93.10
72883;DHT22;61017;37.812;-122.286;2022-12-31T04:47:28;18.50;93.20
72883;DHT22;61017;37.812;-122.286;2022-12-31T04:49:19;18.50;93.20
72883;DHT22;61017;37.812;-122.286;2022-12-31T04:51:09;18.50;93.20
72883;DHT22;61017;37.812;-122.286;2022-12-31T04:53:00;18.50;93.30
72883;DHT22;61017;37.812;-122.286;2022-12-31T04:54:50;18.50;93.20
72883;DHT22;61017;37.812;-122.286;2022-12-31T04:56:40;18.50;93.20
72883;DHT22;61017;37.812;-122.286;2022-12-31T04:58:30;18.50;93.10
72883;DHT22;61017;37.812;-122.286;2022-12-31T05:00:20;18.60;93.10
72883;DHT22;61017;37.812;-122.286;2022-12-31T05:02:10;18.60;93.10
72883;DHT22;61017;37.812;-122.286;2022-12-31T05:04:00;18.50;93.00
72883;DHT22;61017;37.812;-122.286;2022-12-31T05:05:50;18.50;93.20
72883;DHT22;61017;37.812;-122.286;2022-12-31T05:07:40;18.50;93.20
72883;DHT22;61017;37.812;-122.286;2022-12-31T05:09:30;18.50;93.20
72883;DHT22;61017;37.812;-122.286;2022-12-31T05:11:20;18.50;93.10
72883;DHT22;61017;37.812;-122.286;2022-12-31T05:13:10;18.50;93.20
72883;DHT22;61017;37.812;-122.286;2022-12-31T05:15:00;18.50;93.20
72883;DHT22;61017;37.812;-122.286;2022-12-31T05:16:51;18.50;93.10
72883;DHT22;61017;37.812;-122.286;2022-12-31T05:18:41;18.50;93.20
72883;DHT22;61017;37.812;-122.286;2022-12-31T05:20:32;18.50;93.20
72883;DHT22;61017;37.812;-122.286;2022-12-31T05:22:22;18.50;93.20
72883;DHT22;61017;37.812;-122.286;2022-12-31T05:24:12;18.50;93.20
72883;DHT22;61017;37.812;-122.286;2022-12-31T05:26:02;18.50;93.20
72883;DHT22;61017;37.812;-122.286;2022-12-31T05:27:53;18.50;93.10
72883;DHT22;61017;37.812;-122.286;2022-12-31T05:29:43;18.50;93.10
72883;DHT22;61017;37.812;-122.286;2022-12-31T05:31:33;18.50;93.20
72883;DHT22;61017;37.812;-122.286;2022-12-31T05:33:23;18.50;93.00
72883;DHT22;61017;37.812;-122.286;2022-12-31T05:35:13;18.50;93.10
72883;DHT22;61017;37.812;-122.286;2022-12-31T05:37:03;18.50;93.20
72883;DHT22;61017;37.812;-122.286;2022-12-31T05:38:54;18.50;93.20
72883;DHT22;61017;37.812;-122.286;2022-12-31T05:40:44;18.50;93.10
72883;DHT22;61017;37.812;-122.286;2022-12-31T05:42:34;18.50;93.00
72883;DHT22;61017;37.812;-122.286;2022-12-31T05:44:24;18.50;93.40
72883;DHT22;61017;37.812;-122.286;2022-12-31T05:46:14;18.50;93.20
72883;DHT22;61017;37.812;-122.286;2022-12-31T05:48:05;18.50;93.10
72883;DHT22;61017;37.812;-122.286;2022-12-31T05:49:55;18.50;93.10
72883;DHT22;61017;37.812;-122.286;2022-12-31T05:51:45;18.50;93.20
72883;DHT22;61017;37.812;-122.286;2022-12-31T05:53:36;18.50;93.20
72883;DHT22;61017;37.812;-122.286;2022-12-31T05:55:26;18.50;93.20
72883;DHT22;61017;37.812;-122.286;2022-12-31T05:57:16;18.50;93.20
72883;DHT22;61017;37.812;-122.286;2022-12-31T05:59:06;18.50;93.20
72883;DHT22;61017;37.812;-122.286;2022-12-31T06:00:56;18.50;93.20
72883;DHT22;61017;37.812;-122.286;2022-12-31T06:02:46;18.50;93.10
72883;DHT22;61017;37.812;-122.286;2022-12-31T06:04:37;18.50;93.20
72883;DHT22;61017;37.812;-122.286;2022-12-31T06:06:27;18.50;93.10
72883;DHT22;61017;37.812;-122.286;2022-12-31T06:08:17;18.50;93.20
72883;DHT22;61017;37.812;-122.286;2022-12-31T06:10:07;18.50;93.00
72883;DHT22;61017;37.812;-122.286;2022-12-31T06:11:57;18.50;93.20
72883;DHT22;61017;37.812;-122.286;2022-12-31T06:13:47;18.50;93.20
72883;DHT22;61017;37.812;-122.286;2022-12-31T06:15:39;18.50;93.20
72883;DHT22;61017;37.812;-122.286;2022-12-31T06:17:29;18.50;93.10
72883;DHT22;61017;37.812;-122.286;2022-12-31T06:19:19;18.50;93.20
72883;DHT22;61017;37.812;-122.286;2022-12-31T06:21:09;18.50;93.20
72883;DHT22;61017;37.812;-122.286;2022-12-31T06:23:00;18.50;93.20
72883;DHT22;61017;37.812;-122.286;2022-12-31T06:24:50;18.50;93.30
72883;DHT22;61017;37.812;-122.286;2022-12-31T06:26:40;18.50;93.10
72883;DHT22;61017;37.812;-122.286;2022-12-31T06:28:30;18.50;93.20
72883;DHT22;61017;37.812;-122.286;2022-12-31T06:30:20;18.50;93.20
72883;DHT22;61017;37.812;-122.286;2022-12-31T06:32:10;18.50;93.30
72883;DHT22;61017;37.812;-122.286;2022-12-31T06:34:01;18.50;93.10
72883;DHT22;61017;37.812;-122.286;2022-12-31T06:35:55;18.50;93.10
72883;DHT22;61017;37.812;-122.286;2022-12-31T06:37:45;18.50;93.00
72883;DHT22;61017;37.812;-122.286;2022-12-31T06:39:35;18.50;92.90
72883;DHT22;61017;37.812;-122.286;2022-12-31T06:41:26;18.50;93.00
72883;DHT22;61017;37.812;-122.286;2022-12-31T06:43:16;18.50;92.90
72883;DHT22;61017;37.812;-122.286;2022-12-31T06:45:06;18.50;93.00
72883;DHT22;61017;37.812;-122.286;2022-12-31T06:46:56;18.50;93.00
72883;DHT22;61017;37.812;-122.286;2022-12-31T06:48:46;18.50;93.00
72883;DHT22;61017;37.812;-122.286;2022-12-31T06:50:37;18.50;93.00
72883;DHT22;61017;37.812;-122.286;2022-12-31T06:52:26;18.50;93.00
72883;DHT22;61017;37.812;-122.286;2022-12-31T06:54:16;18.50;93.10
72883;DHT22;61017;37.812;-122.286;2022-12-31T06:56:11;18.50;93.00
72883;DHT22;61017;37.812;-122.286;2022-12-31T06:58:02;18.50;93.10
72883;DHT22;61017;37.812;-122.286;2022-12-31T06:59:52;18.50;93.10
72883;DHT22;61017;37.812;-122.286;2022-12-31T07:01:51;18.50;93.10
72883;DHT22;61017;37.812;-122.286;2022-12-31T07:06:32;18.50;93.00
72883;DHT22;61017;37.812;-122.286;2022-12-31T07:10:55;18.50;93.50
72883;DHT22;61017;37.812;-122.286;2022-12-31T07:17:33;18.50;93.60
72883;DHT22;61017;37.812;-122.286;2022-12-31T07:19:41;18.50;93.50
72883;DHT22;61017;37.812;-122.286;2022-12-31T07:21:36;18.50;93.40
72883;DHT22;61017;37.812;-122.286;2022-12-31T07:23:26;18.50;93.40
72883;DHT22;61017;37.812;-122.286;2022-12-31T07:25:17;18.50;93.40
72883;DHT22;61017;37.812;-122.286;2022-12-31T07:27:13;18.50;93.40
72883;DHT22;61017;37.812;-122.286;2022-12-31T07:29:15;18.50;93.20
72883;DHT22;61017;37.812;-122.286;2022-12-31T07:33:18;18.50;93.30
72883;DHT22;61017;37.812;-122.286;2022-12-31T07:35:22;18.50;93.30
72883;DHT22;61017;37.812;-122.286;2022-12-31T07:39:30;18.50;93.40
72883;DHT22;61017;37.812;-122.286;2022-12-31T07:41:41;18.50;93.30
72883;DHT22;61017;37.812;-122.286;2022-12-31T07:45:52;18.50;93.30
72883;DHT22;61017;37.812;-122.286;2022-12-31T07:47:43;18.50;93.20
72883;DHT22;61017;37.812;-122.286;2022-12-31T07:49:34;18.50;93.20
72883;DHT22;61017;37.812;-122.286;2022-12-31T07:51:26;18.50;93.30
72883;DHT22;61017;37.812;-122.286;2022-12-31T07:53:16;18.50;93.70
72883;DHT22;61017;37.812;-122.286;2022-12-31T07:55:06;18.50;93.30
72883;DHT22;61017;37.812;-122.286;2022-12-31T07:56:57;18.50;93.30
72883;DHT22;61017;37.812;-122.286;2022-12-31T07:59:21;18.50;93.20
72883;DHT22;61017;37.812;-122.286;2022-12-31T08:01:25;18.50;93.20
72883;DHT22;61017;37.812;-122.286;2022-12-31T08:08:20;18.50;93.40
72883;DHT22;61017;37.812;-122.286;2022-12-31T08:12:08;18.50;93.50
72883;DHT22;61017;37.812;-122.286;2022-12-31T08:14:00;18.50;93.30
72883;DHT22;61017;37.812;-122.286;2022-12-31T08:15:51;18.50;93.40
72883;DHT22;61017;37.812;-122.286;2022-12-31T08:17:41;18.50;93.40
72883;DHT22;61017;37.812;-122.286;2022-12-31T08:19:32;18.50;93.30
72883;DHT22;61017;37.812;-122.286;2022-12-31T08:23:48;18.50;93.30
72883;DHT22;61017;37.812;-122.286;2022-12-31T08:30:10;18.50;93.30
72883;DHT22;61017;37.812;-122.286;2022-12-31T08:44:38;18.50;93.30
72883;DHT22;61017;37.812;-122.286;2022-12-31T08:48:42;18.50;93.30
72883;DHT22;61017;37.812;-122.286;2022-12-31T08:50:32;18.50;93.30
72883;DHT22;61017;37.812;-122.286;2022-12-31T08:52:25;18.40;93.40
72883;DHT22;61017;37.812;-122.286;2022-12-31T08:54:15;18.50;93.30
72883;DHT22;61017;37.812;-122.286;2022-12-31T08:56:33;18.50;93.20
72883;DHT22;61017;37.812;-122.286;2022-12-31T09:01:14;18.50;93.20
72883;DHT22;61017;37.812;-122.286;2022-12-31T09:05:32;18.50;93.30
72883;DHT22;61017;37.812;-122.286;2022-12-31T09:08:27;18.40;93.20
72883;DHT22;61017;37.812;-122.286;2022-12-31T09:09:59;18.50;93.20
72883;DHT22;61017;37.812;-122.286;2022-12-31T09:12:03;18.50;93.20
72883;DHT22;61017;37.812;-122.286;2022-12-31T09:16:36;18.50;93.30
72883;DHT22;61017;37.812;-122.286;2022-12-31T09:18:28;18.50;93.30
72883;DHT22;61017;37.812;-122.286;2022-12-31T09:20:28;18.40;93.20
72883;DHT22;61017;37.812;-122.286;2022-12-31T09:22:18;18.40;93.20
72883;DHT22;61017;37.812;-122.286;2022-12-31T09:24:13;18.50;93.30
72883;DHT22;61017;37.812;-122.286;2022-12-31T09:26:28;18.50;93.30
72883;DHT22;61017;37.812;-122.286;2022-12-31T09:31:02;18.50;93.50
72883;DHT22;61017;37.812;-122.286;2022-12-31T09:33:10;18.50;93.30
72883;DHT22;61017;37.812;-122.286;2022-12-31T09:39:40;18.50;93.20
72883;DHT22;61017;37.812;-122.286;2022-12-31T09:44:13;18.40;93.20
72883;DHT22;61017;37.812;-122.286;2022-12-31T09:51:26;18.40;93.20
72883;DHT22;61017;37.812;-122.286;2022-12-31T09:55:30;18.40;93.20
72883;DHT22;61017;37.812;-122.286;2022-12-31T10:01:55;18.40;93.10
72883;DHT22;61017;37.812;-122.286;2022-12-31T10:14:55;18.40;93.20
72883;DHT22;61017;37.812;-122.286;2022-12-31T10:26:23;18.40;93.20
72883;DHT22;61017;37.812;-122.286;2022-12-31T10:28:30;18.40;93.10
72883;DHT22;61017;37.812;-122.286;2022-12-31T10:30:31;18.40;93.10
72883;DHT22;61017;37.812;-122.286;2022-12-31T10:32:50;18.40;93.20
72883;DHT22;61017;37.812;-122.286;2022-12-31T10:35:00;18.40;93.20
72883;DHT22;61017;37.812;-122.286;2022-12-31T10:53:02;18.40;93.10
72883;DHT22;61017;37.812;-122.286;2022-12-31T10:57:12;18.30;93.00
72883;DHT22;61017;37.812;-122.286;2022-12-31T11:14:27;18.40;93.10
72883;DHT22;61017;37.812;-122.286;2022-12-31T11:16:34;18.40;93.00
72883;DHT22;61017;37.812;-122.286;2022-12-31T11:25:19;18.40;93.10
72883;DHT22;61017;37.812;-122.286;2022-12-31T11:27:53;18.40;93.00
72883;DHT22;61017;37.812;-122.286;2022-12-31T11:34:00;18.30;92.90
72883;DHT22;61017;37.812;-122.286;2022-12-31T11:38:23;18.30;92.90
72883;DHT22;61017;37.812;-122.286;2022-12-31T11:44:50;18.30;92.90
72883;DHT22;61017;37.812;-122.286;2022-12-31T11:49:13;18.30;93.00
72883;DHT22;61017;37.812;-122.286;2022-12-31T11:53:42;18.30;92.90
72883;DHT22;61017;37.812;-122.286;2022-12-31T11:55:54;18.30;92.90
72883;DHT22;61017;37.812;-122.286;2022-12-31T11:57:51;18.30;92.90
72883;DHT22;61017;37.812;-122.286;2022-12-31T11:59:41;18.30;92.80
72883;DHT22;61017;37.812;-122.286;2022-12-31T12:03:45;18.30;92.90
72883;DHT22;61017;37.812;-122.286;2022-12-31T12:05:37;18.30;92.90
72883;DHT22;61017;37.812;-122.286;2022-12-31T12:07:29;18.30;92.90
72883;DHT22;61017;37.812;-122.286;2022-12-31T12:09:30;18.30;92.90
72883;DHT22;61017;37.812;-122.286;2022-12-31T12:11:24;18.30;92.90
72883;DHT22;61017;37.812;-122.286;2022-12-31T12:13:24;18.30;92.90
72883;DHT22;61017;37.812;-122.286;2022-12-31T12:15:22;18.30;92.80
72883;DHT22;61017;37.812;-122.286;2022-12-31T12:17:27;18.30;92.90
72883;DHT22;61017;37.812;-122.286;2022-12-31T12:19:17;18.30;92.80
72883;DHT22;61017;37.812;-122.286;2022-12-31T12:21:11;18.30;92.90
72883;DHT22;61017;37.812;-122.286;2022-12-31T12:23:05;18.30;93.20
72883;DHT22;61017;37.812;-122.286;2022-12-31T12:25:09;18.30;93.10
72883;DHT22;61017;37.812;-122.286;2022-12-31T12:27:04;18.30;93.00
72883;DHT22;61017;37.812;-122.286;2022-12-31T12:29:10;18.30;93.00
72883;DHT22;61017;37.812;-122.286;2022-12-31T12:31:03;18.30;92.90
72883;DHT22;61017;37.812;-122.286;2022-12-31T12:33:01;18.30;93.00
72883;DHT22;61017;37.812;-122.286;2022-12-31T12:34:52;18.30;93.00
72883;DHT22;61017;37.812;-122.286;2022-12-31T12:36:46;18.30;92.90
72883;DHT22;61017;37.812;-122.286;2022-12-31T12:38:36;18.30;92.90
72883;DHT22;61017;37.812;-122.286;2022-12-31T12:40:26;18.30;92.90
72883;DHT22;61017;37.812;-122.286;2022-12-31T12:42:17;18.30;92.80
72883;DHT22;61017;37.812;-122.286;2022-12-31T12:44:13;18.30;92.90
72883;DHT22;61017;37.812;-122.286;2022-12-31T12:46:32;18.30;92.90
72883;DHT22;61017;37.812;-122.286;2022-12-31T12:48:36;18.30;92.90
72883;DHT22;61017;37.812;-122.286;2022-12-31T12:50:40;18.30;92.90
72883;DHT22;61017;37.812;-122.286;2022-12-31T12:53:00;18.30;92.70
72883;DHT22;61017;37.812;-122.286;2022-12-31T12:57:04;18.30;92.90
72883;DHT22;61017;37.812;-122.286;2022-12-31T13:01:21;18.30;92.80
72883;DHT22;61017;37.812;-122.286;2022-12-31T13:10:16;18.20;93.10
72883;DHT22;61017;37.812;-122.286;2022-12-31T13:18:57;18.20;92.70
72883;DHT22;61017;37.812;-122.286;2022-12-31T13:21:02;18.20;92.70
72883;DHT22;61017;37.812;-122.286;2022-12-31T13:25:06;18.20;92.70
72883;DHT22;61017;37.812;-122.286;2022-12-31T13:27:27;18.20;92.70
72883;DHT22;61017;37.812;-122.286;2022-12-31T13:29:23;18.20;92.70
72883;DHT22;61017;37.812;-122.286;2022-12-31T13:31:21;18.20;92.70
72883;DHT22;61017;37.812;-122.286;2022-12-31T13:35:26;18.20;92.70
72883;DHT22;61017;37.812;-122.286;2022-12-31T13:37:27;18.20;92.80
72883;DHT22;61017;37.812;-122.286;2022-12-31T13:39:32;18.20;92.80
72883;DHT22;61017;37.812;-122.286;2022-12-31T13:41:30;18.20;92.60
72883;DHT22;61017;37.812;-122.286;2022-12-31T13:43:42;18.20;92.70
72883;DHT22;61017;37.812;-122.286;2022-12-31T13:45:39;18.20;93.10
72883;DHT22;61017;37.812;-122.286;2022-12-31T13:49:36;18.20;92.70
72883;DHT22;61017;37.812;-122.286;2022-12-31T13:51:48;18.20;92.60
72883;DHT22;61017;37.812;-122.286;2022-12-31T13:53:48;18.20;92.60
72883;DHT22;61017;37.812;-122.286;2022-12-31T13:55:45;18.20;92.70
72883;DHT22;61017;37.812;-122.286;2022-12-31T13:59:49;18.20;92.70
72883;DHT22;61017;37.812;-122.286;2022-12-31T14:01:48;18.20;92.70
72883;DHT22;61017;37.812;-122.286;2022-12-31T14:03:57;18.20;92.60
72883;DHT22;61017;37.812;-122.286;2022-12-31T14:06:00;18.20;92.60
72883;DHT22;61017;37.812;-122.286;2022-12-31T14:07:56;18.20;92.60
72883;DHT22;61017;37.812;-122.286;2022-12-31T14:09:47;18.20;92.60
72883;DHT22;61017;37.812;-122.286;2022-12-31T14:12:12;18.20;92.60
72883;DHT22;61017;37.812;-122.286;2022-12-31T14:21:33;18.10;92.50
72883;DHT22;61017;37.812;-122.286;2022-12-31T14:23:46;18.10;92.60
72883;DHT22;61017;37.812;-122.286;2022-12-31T14:27:42;18.10;92.60
72883;DHT22;61017;37.812;-122.286;2022-12-31T14:29:38;18.10;92.50
72883;DHT22;61017;37.812;-122.286;2022-12-31T14:33:49;18.10;92.50
72883;DHT22;61017;37.812;-122.286;2022-12-31T14:35:55;18.10;92.60
72883;DHT22;61017;37.812;-122.286;2022-12-31T14:40:23;18.10;92.80
72883;DHT22;61017;37.812;-122.286;2022-12-31T14:42:55;18.10;92.70
72883;DHT22;61017;37.812;-122.286;2022-12-31T14:46:58;18.10;92.70
72883;DHT22;61017;37.812;-122.286;2022-12-31T14:51:20;18.10;92.80
72883;DHT22;61017;37.812;-122.286;2022-12-31T14:53:22;18.10;92.80
72883;DHT22;61017;37.812;-122.286;2022-12-31T14:57:22;18.10;92.80
72883;DHT22;61017;37.812;-122.286;2022-12-31T14:59:33;18.10;92.80
72883;DHT22;61017;37.812;-122.286;2022-12-31T15:01:23;18.10;92.70
72883;DHT22;61017;37.812;-122.286;2022-12-31T15:13:50;18.10;92.70
72883;DHT22;61017;37.812;-122.286;2022-12-31T15:20:36;18.00;92.70
72883;DHT22;61017;37.812;-122.286;2022-12-31T15:22:46;18.00;92.70
72883;DHT22;61017;37.812;-122.286;2022-12-31T15:24:43;18.00;92.70
72883;DHT22;61017;37.812;-122.286;2022-12-31T15:26:34;18.00;92.70
72883;DHT22;61017;37.812;-122.286;2022-12-31T15:28:34;18.00;92.70
72883;DHT22;61017;37.812;-122.286;2022-12-31T15:30:30;18.00;92.70